Gorin, Missouri
Current Conditions -  °F | °C
As of 6:15 PM on Friday 28 Nov 2014 (Local Time) from KEOK Reporting Station
Clear Clear  
Wind Chill: 31°   Ceiling: Unl
Heat Index: 37°   Visibility: 10mi
Dew Point: 34°   Wind: 9mph
Humidity: 87%   Direction: 120°ESE
Pressure: 29.84"   Gusts: NA
Location:  40.36°N, 92.02°W
Report Text: KEOK 290015Z AUTO 12008KT 10SM CLR 03/01 A2984 RMK AO2
Loading
Personal Weather Stations






























Interactive Weather Map New forecast layout! Learn more

10-Day Weather Forecast

Advertisements
Track Severe Weather on mobile